createdAt,value
2018-05-26T00:00:06.584Z,8.90
2018-05-26T00:02:34.632Z,9.70
2018-05-26T00:05:02.172Z,9.43
2018-05-26T00:07:29.719Z,9.90
2018-05-26T00:09:57.245Z,11.00
2018-05-26T00:12:24.804Z,10.70
2018-05-26T00:14:52.341Z,9.23
2018-05-26T00:17:20.048Z,10.10
2018-05-26T00:19:47.577Z,10.67
2018-05-26T00:22:15.096Z,9.70
2018-05-26T00:24:43.183Z,10.27
2018-05-26T00:27:10.709Z,10.07
2018-05-26T00:29:38.261Z,11.23
2018-05-26T00:32:05.781Z,10.97
2018-05-26T00:34:33.344Z,12.17
2018-05-26T00:37:00.869Z,10.77
2018-05-26T00:39:28.404Z,11.97
2018-05-26T00:41:55.960Z,10.80
2018-05-26T00:44:23.485Z,12.07
2018-05-26T00:46:51.064Z,10.70
2018-05-26T00:49:18.597Z,10.87
2018-05-26T00:51:46.416Z,10.53
2018-05-26T00:54:13.940Z,10.30
2018-05-26T00:56:42.381Z,9.20
2018-05-26T00:59:10.956Z,9.53
2018-05-26T01:01:38.481Z,9.77
2018-05-26T01:04:06.026Z,9.40
2018-05-26T01:06:33.549Z,9.60
2018-05-26T01:09:01.277Z,9.10
2018-05-26T01:11:29.673Z,9.80
2018-05-26T01:13:57.201Z,9.00
2018-05-26T01:16:24.756Z,8.80
2018-05-26T01:18:52.396Z,9.77
2018-05-26T01:21:19.963Z,8.20
2018-05-26T01:23:47.484Z,9.30
2018-05-26T01:26:15.356Z,9.33
2018-05-26T01:28:42.877Z,10.50
2018-05-26T01:31:10.398Z,10.03
2018-05-26T01:33:37.989Z,10.00
2018-05-26T01:36:05.537Z,9.60
2018-05-26T01:38:33.093Z,10.20
2018-05-26T01:41:00.615Z,9.30
2018-05-26T01:43:28.191Z,10.00
2018-05-26T01:45:55.710Z,9.37
2018-05-26T01:48:23.270Z,9.63
2018-05-26T01:50:50.823Z,10.77
2018-05-26T01:53:18.345Z,10.57
2018-05-26T01:55:45.894Z,10.57
2018-05-26T01:58:13.412Z,10.70
2018-05-26T02:00:40.969Z,9.00
2018-05-26T02:03:09.313Z,9.20
2018-05-26T02:05:36.838Z,9.30
2018-05-26T02:08:04.396Z,10.47
2018-05-26T02:10:32.734Z,9.20
2018-05-26T02:13:00.280Z,9.30
2018-05-26T02:15:27.809Z,9.33
2018-05-26T02:17:55.357Z,9.70
2018-05-26T02:20:22.898Z,8.60
2018-05-26T02:22:50.616Z,9.47
2018-05-26T02:25:18.128Z,9.57
2018-05-26T02:27:45.656Z,9.37
2018-05-26T02:30:13.205Z,10.57
2018-05-26T02:32:40.729Z,9.03
2018-05-26T02:35:08.277Z,9.70
2018-05-26T02:37:35.808Z,10.33
2018-05-26T02:40:03.331Z,9.60
2018-05-26T02:42:31.214Z,9.20
2018-05-26T02:44:58.731Z,9.43
2018-05-26T02:47:26.314Z,11.23
2018-05-26T02:49:53.850Z,10.57
2018-05-26T02:52:21.376Z,10.37
2018-05-26T02:54:50.035Z,11.67
2018-05-26T02:57:17.556Z,10.40
2018-05-26T02:59:45.124Z,11.80
2018-05-26T03:02:12.657Z,12.03
2018-05-26T03:04:45.798Z,12.70
2018-05-26T03:07:18.996Z,13.00
2018-05-26T03:09:52.136Z,14.07
2018-05-26T03:12:25.694Z,12.77
2018-05-26T03:14:52.702Z,12.60
2018-05-26T03:17:27.777Z,13.87
2018-05-26T03:19:55.612Z,12.97
2018-05-26T03:22:23.140Z,11.77
2018-05-26T03:24:50.665Z,13.23
2018-05-26T03:27:18.216Z,14.00
2018-05-26T03:29:45.761Z,13.00
2018-05-26T03:32:13.291Z,14.27
2018-05-26T03:34:40.832Z,14.80
2018-05-26T03:37:08.365Z,14.80
2018-05-26T03:39:35.901Z,14.07
2018-05-26T03:42:03.678Z,13.13
2018-05-26T03:44:31.210Z,12.73
2018-05-26T03:46:58.735Z,12.37
2018-05-26T03:49:26.319Z,13.33
2018-05-26T03:51:53.844Z,12.67
2018-05-26T03:54:22.486Z,12.40
2018-05-26T04:00:17.840Z,11.70
2018-05-26T04:02:45.362Z,10.57
2018-05-26T04:05:12.926Z,10.93
2018-05-26T04:07:40.437Z,9.70
2018-05-26T04:10:08.273Z,10.47
2018-05-26T04:12:35.987Z,10.43
2018-05-26T04:15:03.851Z,10.23
2018-05-26T04:17:31.435Z,9.47
2018-05-26T04:19:59.008Z,10.83
2018-05-26T04:22:26.565Z,9.87
2018-05-26T04:24:54.088Z,11.07
2018-05-26T04:27:21.793Z,9.13
2018-05-26T04:29:49.308Z,9.97
2018-05-26T04:32:16.833Z,10.10
2018-05-26T04:34:44.389Z,10.73
2018-05-26T04:37:12.163Z,12.37
2018-05-26T04:39:40.012Z,10.97
2018-05-26T04:42:07.639Z,12.10
2018-05-26T04:44:35.510Z,10.50
2018-05-26T04:47:03.068Z,10.50
2018-05-26T04:49:31.059Z,11.53
2018-05-26T04:51:58.833Z,11.97
2018-05-26T04:54:26.391Z,11.57
2018-05-26T04:56:53.940Z,11.80
2018-05-26T04:59:21.494Z,12.33
2018-05-26T05:01:49.436Z,12.70
2018-05-26T05:04:16.960Z,13.60
2018-05-26T05:06:45.209Z,12.93
2018-05-26T05:09:12.813Z,14.73
2018-05-26T05:11:40.349Z,13.47
2018-05-26T05:14:07.908Z,13.73
2018-05-26T05:16:35.437Z,14.27
2018-05-26T05:19:03.060Z,14.90
2018-05-26T05:21:30.590Z,13.83
2018-05-26T05:23:58.133Z,14.30
2018-05-26T05:26:25.684Z,14.80
2018-05-26T05:28:53.231Z,15.23
2018-05-26T05:31:20.781Z,14.67
2018-05-26T05:33:48.308Z,13.77
2018-05-26T05:36:16.109Z,13.60
2018-05-26T05:38:43.664Z,12.47
2018-05-26T05:41:11.192Z,13.23
2018-05-26T05:43:38.756Z,13.50
2018-05-26T05:46:06.280Z,13.97
2018-05-26T05:48:34.424Z,11.80
2018-05-26T05:51:01.949Z,13.70
2018-05-26T05:53:32.409Z,12.33
2018-05-26T05:55:59.925Z,13.30
2018-05-26T05:58:27.472Z,13.00
2018-05-26T06:00:55.061Z,13.57
2018-05-26T06:03:22.583Z,11.67
2018-05-26T06:05:50.132Z,12.70
2018-05-26T06:08:17.779Z,12.20
2018-05-26T06:10:45.532Z,14.43
2018-05-26T06:13:13.085Z,13.27
2018-05-26T06:15:40.604Z,12.33
2018-05-26T06:18:08.152Z,13.00
2018-05-26T06:20:35.681Z,12.67
2018-05-26T06:23:03.238Z,13.80
2018-05-26T06:25:30.760Z,15.63
2018-05-26T06:27:58.324Z,12.13
2018-05-26T06:30:25.846Z,14.17
2018-05-26T06:32:53.368Z,13.60
2018-05-26T06:35:21.958Z,14.13
2018-05-26T06:37:49.485Z,13.07
2018-05-26T06:40:17.039Z,13.20
2018-05-26T06:42:44.566Z,12.70
2018-05-26T06:45:12.165Z,12.98
2018-05-26T06:47:39.685Z,13.87
2018-05-26T06:50:07.210Z,14.80
2018-05-26T06:52:35.270Z,13.20
2018-05-26T06:55:03.275Z,13.23
2018-05-26T06:57:30.859Z,12.90
2018-05-26T06:59:58.397Z,13.37
2018-05-26T07:02:26.425Z,13.10
2018-05-26T07:04:53.961Z,14.20
2018-05-26T07:07:21.489Z,13.67
2018-05-26T07:09:49.042Z,13.40
2018-05-26T07:12:16.562Z,13.20
2018-05-26T07:14:44.121Z,11.40
2018-05-26T07:17:11.641Z,11.50
2018-05-26T07:19:39.217Z,11.60
2018-05-26T07:22:06.741Z,10.90
2018-05-26T07:24:34.273Z,11.73
2018-05-26T07:27:01.833Z,13.10
2018-05-26T07:29:29.362Z,11.07
2018-05-26T07:31:56.948Z,11.93
2018-05-26T07:34:24.473Z,10.97
2018-05-26T07:36:52.144Z,9.67
2018-05-26T07:39:19.673Z,9.20
2018-05-26T07:41:47.192Z,9.90
2018-05-26T07:44:14.739Z,7.97
2018-05-26T07:46:42.261Z,8.90
2018-05-26T07:49:09.842Z,10.47
2018-05-26T07:51:37.362Z,8.60
2018-05-26T07:54:05.164Z,8.77
2018-05-26T07:56:32.689Z,9.83
2018-05-26T07:59:00.213Z,8.23
2018-05-26T08:01:27.760Z,8.17
2018-05-26T08:03:55.284Z,8.90
2018-05-26T08:06:22.842Z,8.00
2018-05-26T08:08:50.370Z,8.50
2018-05-26T08:11:17.940Z,7.50
2018-05-26T08:13:45.476Z,7.30
2018-05-26T08:16:13.006Z,7.60
2018-05-26T08:18:40.544Z,6.43
2018-05-26T08:21:08.066Z,8.37
2018-05-26T08:23:35.616Z,8.07
2018-05-26T08:26:03.140Z,9.63
2018-05-26T08:28:30.695Z,8.77
2018-05-26T08:30:58.305Z,9.30
2018-05-26T08:33:25.838Z,7.30
2018-05-26T08:35:53.378Z,8.00
2018-05-26T08:38:20.905Z,7.33
2018-05-26T08:40:48.455Z,8.03
2018-05-26T08:43:15.973Z,8.07
2018-05-26T08:45:43.493Z,7.57
2018-05-26T08:48:11.049Z,8.63
2018-05-26T08:50:38.590Z,7.83
2018-05-26T08:53:06.164Z,7.90
2018-05-26T08:55:33.685Z,7.70
2018-05-26T08:58:01.207Z,7.80
2018-05-26T09:00:29.718Z,7.37
2018-05-26T09:02:57.240Z,6.90
2018-05-26T09:05:24.800Z,7.80
2018-05-26T09:07:52.544Z,6.50
2018-05-26T09:10:20.438Z,6.83
2018-05-26T09:12:48.029Z,7.50
2018-05-26T09:15:16.275Z,7.73
2018-05-26T09:17:44.755Z,6.17
2018-05-26T09:20:12.722Z,6.73
2018-05-26T09:22:40.308Z,6.73
2018-05-26T09:25:10.583Z,6.20
2018-05-26T09:27:38.249Z,5.50
2018-05-26T09:30:06.297Z,5.57
2018-05-26T09:32:34.104Z,6.00
2018-05-26T09:35:01.914Z,4.70
2018-05-26T09:37:29.749Z,5.20
2018-05-26T09:39:58.427Z,5.90
2018-05-26T09:42:26.017Z,6.70
2018-05-26T09:44:54.420Z,4.73
2018-05-26T09:47:21.972Z,5.13
2018-05-26T09:49:50.912Z,5.00
2018-05-26T09:52:19.054Z,4.23
2018-05-26T09:54:46.888Z,4.93
2018-05-26T09:57:14.564Z,4.60
2018-05-26T09:59:42.213Z,4.43
2018-05-26T10:02:09.753Z,5.03
2018-05-26T10:04:40.433Z,4.57
2018-05-26T10:07:08.928Z,3.90
2018-05-26T10:09:36.632Z,3.90
2018-05-26T10:12:04.335Z,4.13
2018-05-26T10:14:31.884Z,3.63
2018-05-26T10:16:59.799Z,3.97
2018-05-26T10:19:31.123Z,3.60
2018-05-26T10:21:59.043Z,3.80
2018-05-26T10:24:26.731Z,4.73
2018-05-26T10:26:54.481Z,3.20
2018-05-26T10:29:22.007Z,3.40
2018-05-26T10:31:49.528Z,4.17
2018-05-26T10:34:17.352Z,4.60
2018-05-26T10:36:44.860Z,5.07
2018-05-26T10:39:12.443Z,3.97
2018-05-26T10:41:40.513Z,3.20
2018-05-26T10:44:08.080Z,5.57
2018-05-26T10:46:36.655Z,4.37
2018-05-26T10:49:04.183Z,3.67
2018-05-26T10:51:31.735Z,3.60
2018-05-26T10:53:59.272Z,3.53
2018-05-26T10:56:26.828Z,3.17
2018-05-26T10:58:54.354Z,3.53
2018-05-26T11:01:22.120Z,15.53
2018-05-26T11:03:49.628Z,3.90
2018-05-26T11:06:17.164Z,3.33
2018-05-26T11:08:44.720Z,2.93
2018-05-26T11:11:12.237Z,3.97
2018-05-26T11:13:40.321Z,3.40
2018-05-26T11:16:07.986Z,3.30
2018-05-26T11:18:35.635Z,4.40
2018-05-26T11:21:03.160Z,3.90
2018-05-26T11:23:30.731Z,3.30
2018-05-26T11:25:58.355Z,3.03
2018-05-26T11:28:25.917Z,2.80
2018-05-26T11:30:53.506Z,2.97
2018-05-26T11:33:21.192Z,2.90
2018-05-26T11:35:48.752Z,2.50
2018-05-26T11:38:16.308Z,2.78
2018-05-26T11:40:43.824Z,2.30
2018-05-26T11:43:11.621Z,2.55
2018-05-26T11:45:39.257Z,2.50
2018-05-26T11:48:06.812Z,2.08
2018-05-26T11:50:34.325Z,2.42
2018-05-26T11:53:01.845Z,2.10
2018-05-26T11:55:29.394Z,2.20
2018-05-26T11:57:56.939Z,2.78
2018-05-26T12:00:24.488Z,2.55
2018-05-26T12:02:52.007Z,2.45
2018-05-26T12:05:19.748Z,2.40
2018-05-26T12:07:47.648Z,3.00
2018-05-26T12:10:15.576Z,2.33
2018-05-26T12:12:44.307Z,2.00
2018-05-26T12:15:11.833Z,2.20
2018-05-26T12:17:40.331Z,2.75
2018-05-26T12:20:08.033Z,2.15
2018-05-26T12:22:35.779Z,2.60
2018-05-26T12:25:03.835Z,2.00
2018-05-26T12:27:31.507Z,2.45
2018-05-26T12:29:59.274Z,2.50
2018-05-26T12:32:26.885Z,2.00
2018-05-26T12:34:55.241Z,2.37
2018-05-26T12:37:22.873Z,2.58
2018-05-26T12:39:50.531Z,1.85
2018-05-26T12:42:18.808Z,1.95
2018-05-26T12:44:46.380Z,2.65
2018-05-26T12:47:14.008Z,2.17
2018-05-26T12:49:42.925Z,2.45
2018-05-26T12:52:10.467Z,2.30
2018-05-26T12:54:38.347Z,2.08
2018-05-26T12:57:05.923Z,2.47
2018-05-26T12:59:42.129Z,2.17
2018-05-26T13:02:09.656Z,2.25
2018-05-26T13:04:37.304Z,2.40
2018-05-26T13:07:05.129Z,2.15
2018-05-26T13:09:32.712Z,2.20
2018-05-26T13:12:00.359Z,2.78
2018-05-26T13:14:27.921Z,2.85
2018-05-26T13:16:55.679Z,2.35
2018-05-26T13:19:23.360Z,3.00
2018-05-26T13:21:52.915Z,2.67
2018-05-26T13:24:20.482Z,2.60
2018-05-26T13:26:48.787Z,2.37
2018-05-26T13:29:18.308Z,2.00
2018-05-26T13:31:46.628Z,2.40
2018-05-26T13:34:14.671Z,2.33
2018-05-26T13:36:42.217Z,2.57
2018-05-26T13:39:09.780Z,2.60
2018-05-26T13:41:41.020Z,2.13
2018-05-26T13:44:08.542Z,2.40
2018-05-26T13:46:36.064Z,2.67
2018-05-26T13:49:03.612Z,1.83
2018-05-26T13:51:31.280Z,2.20
2018-05-26T13:53:59.346Z,2.27
2018-05-26T13:56:26.946Z,2.37
2018-05-26T13:58:58.418Z,2.17
2018-05-26T14:01:25.952Z,1.97
2018-05-26T14:03:53.482Z,2.60
2018-05-26T14:06:21.020Z,2.30
2018-05-26T14:08:48.538Z,2.80
2018-05-26T14:11:16.093Z,2.17
2018-05-26T14:13:43.613Z,2.73
2018-05-26T14:16:11.254Z,2.07
2018-05-26T14:18:38.777Z,2.60
2018-05-26T14:21:06.328Z,2.43
2018-05-26T14:23:33.942Z,2.40
2018-05-26T14:26:01.463Z,2.57
2018-05-26T14:28:29.024Z,2.30
2018-05-26T14:30:56.602Z,2.20
2018-05-26T14:33:24.166Z,2.30
2018-05-26T14:35:51.756Z,1.93
2018-05-26T14:38:19.290Z,2.40
2018-05-26T14:40:46.841Z,2.37
2018-05-26T14:43:14.384Z,2.43
2018-05-26T14:45:41.967Z,2.93
2018-05-26T14:48:09.499Z,2.77
2018-05-26T14:50:37.185Z,2.50
2018-05-26T14:53:04.705Z,2.53
2018-05-26T14:55:32.237Z,2.27
2018-05-26T14:58:00.028Z,2.40
2018-05-26T15:00:27.863Z,2.90
2018-05-26T15:02:55.616Z,3.30
2018-05-26T15:05:23.154Z,5.10
2018-05-26T15:07:51.024Z,3.40
2018-05-26T15:10:18.545Z,2.90
2018-05-26T15:12:46.239Z,9.00
2018-05-26T15:15:13.717Z,2.93
2018-05-26T15:17:41.235Z,4.27
2018-05-26T15:20:08.781Z,3.17
2018-05-26T15:22:36.312Z,2.90
2018-05-26T15:25:05.068Z,3.03
2018-05-26T15:27:32.591Z,3.40
2018-05-26T15:30:00.117Z,3.20
2018-05-26T15:32:27.750Z,3.43
2018-05-26T15:34:55.280Z,3.40
2018-05-26T15:37:23.284Z,2.90
2018-05-26T15:39:52.236Z,3.03
2018-05-26T15:42:20.116Z,3.67
2018-05-26T15:44:47.899Z,3.70
2018-05-26T15:47:15.475Z,2.70
2018-05-26T15:49:43.401Z,3.70
2018-05-26T15:52:10.918Z,4.27
2018-05-26T15:54:38.457Z,3.30
2018-05-26T15:57:06.184Z,3.13
2018-05-26T15:59:34.665Z,2.53
2018-05-26T16:02:02.352Z,2.40
2018-05-26T16:04:29.864Z,2.73
2018-05-26T16:06:57.676Z,3.13
2018-05-26T16:09:25.192Z,2.80
2018-05-26T16:11:52.997Z,2.77
2018-05-26T16:14:20.540Z,3.23
2018-05-26T16:16:48.405Z,2.70
2018-05-26T16:19:16.393Z,3.40
2018-05-26T16:21:44.012Z,3.03
2018-05-26T16:24:11.572Z,3.00
2018-05-26T16:26:40.303Z,2.93
2018-05-26T16:29:07.918Z,3.17
2018-05-26T16:31:35.453Z,3.47
2018-05-26T16:34:04.616Z,3.20
2018-05-26T16:36:32.468Z,4.13
2018-05-26T16:39:00.239Z,3.27
2018-05-26T16:41:28.013Z,3.30
2018-05-26T16:43:56.491Z,3.90
2018-05-26T16:46:24.358Z,3.70
2018-05-26T16:48:52.225Z,4.10
2018-05-26T16:51:21.015Z,5.23
2018-05-26T16:53:48.982Z,4.23
2018-05-26T16:56:17.558Z,4.73
2018-05-26T16:58:45.223Z,4.93
2018-05-26T17:01:12.722Z,4.47
2018-05-26T17:03:40.272Z,3.50
2018-05-26T17:06:08.131Z,3.67
2018-05-26T17:08:36.223Z,4.33
2018-05-26T17:11:03.757Z,4.43
2018-05-26T17:13:31.301Z,3.90
2018-05-26T17:15:58.936Z,3.87
2018-05-26T17:18:26.523Z,4.27
2018-05-26T17:20:54.106Z,4.33
2018-05-26T17:23:21.632Z,3.63
2018-05-26T17:25:49.693Z,3.70
2018-05-26T17:28:17.208Z,3.63
2018-05-26T17:30:44.725Z,4.40
2018-05-26T17:33:12.514Z,4.33
2018-05-26T17:35:40.148Z,4.87
2018-05-26T17:38:07.704Z,5.13
2018-05-26T17:40:35.227Z,5.20
2018-05-26T17:43:02.916Z,4.70
2018-05-26T17:45:30.438Z,5.13
2018-05-26T17:47:57.995Z,4.80
2018-05-26T17:50:25.820Z,4.70
2018-05-26T17:52:54.755Z,4.40
2018-05-26T17:55:22.894Z,4.53
2018-05-26T17:57:50.597Z,4.03
2018-05-26T18:00:18.824Z,4.73
2018-05-26T18:02:47.328Z,4.70
2018-05-26T18:05:14.849Z,4.63
2018-05-26T18:07:42.481Z,4.20
2018-05-26T18:10:10.175Z,4.30
2018-05-26T18:12:39.056Z,3.93
2018-05-26T18:15:06.673Z,3.67
2018-05-26T18:17:34.641Z,4.83
2018-05-26T18:20:02.162Z,3.83
2018-05-26T18:22:29.824Z,4.67
2018-05-26T18:24:57.751Z,3.80
2018-05-26T18:27:25.285Z,3.93
2018-05-26T18:29:52.843Z,4.67
2018-05-26T18:32:20.361Z,3.80
2018-05-26T18:34:48.545Z,4.27
2018-05-26T18:37:16.614Z,3.97
2018-05-26T18:39:44.137Z,4.30
2018-05-26T18:42:11.695Z,4.50
2018-05-26T18:44:39.221Z,4.20
2018-05-26T18:47:06.830Z,4.67
2018-05-26T18:49:34.381Z,4.57
2018-05-26T18:52:02.257Z,4.40
2018-05-26T18:54:29.780Z,4.83
2018-05-26T18:56:57.334Z,5.77
2018-05-26T18:59:24.884Z,4.70
2018-05-26T19:01:52.405Z,4.03
2018-05-26T19:04:19.960Z,6.33
2018-05-26T19:06:47.526Z,5.43
2018-05-26T19:09:15.044Z,4.70
2018-05-26T19:11:42.960Z,4.90
2018-05-26T19:14:10.481Z,7.27
2018-05-26T19:16:38.128Z,5.60
2018-05-26T19:19:05.649Z,4.40
2018-05-26T19:21:33.165Z,5.17
2018-05-26T19:24:00.721Z,5.50
2018-05-26T19:26:28.238Z,5.07
2018-05-26T19:28:55.959Z,5.93
2018-05-26T19:31:23.492Z,7.10
2018-05-26T19:33:51.004Z,5.17
2018-05-26T19:36:18.564Z,5.47
2018-05-26T19:38:46.101Z,5.83
2018-05-26T19:41:13.620Z,5.50
2018-05-26T19:43:41.332Z,5.60
2018-05-26T19:46:08.877Z,5.60
2018-05-26T19:48:36.448Z,7.20
2018-05-26T19:51:04.440Z,8.20
2018-05-26T19:53:31.985Z,7.90
2018-05-26T19:55:59.548Z,6.43
2018-05-26T19:58:27.259Z,7.10
2018-05-26T20:00:55.375Z,6.30
2018-05-26T20:03:22.934Z,6.30
2018-05-26T20:05:50.469Z,7.10
2018-05-26T20:08:18.005Z,6.67
2018-05-26T20:10:45.573Z,7.40
2018-05-26T20:13:13.118Z,7.00
2018-05-26T20:15:40.721Z,8.03
2018-05-26T20:18:08.399Z,8.70
2018-05-26T20:20:35.966Z,8.40
2018-05-26T20:23:03.512Z,7.43
2018-05-26T20:25:31.176Z,8.30
2018-05-26T20:27:58.802Z,8.40
2018-05-26T20:30:26.321Z,8.60
2018-05-26T20:32:53.853Z,10.00
2018-05-26T20:35:21.491Z,9.30
2018-05-26T20:37:49.089Z,8.20
2018-05-26T20:40:16.718Z,7.80
2018-05-26T20:42:44.241Z,6.80
2018-05-26T20:45:11.781Z,6.87
2018-05-26T20:47:40.231Z,6.27
2018-05-26T20:50:07.798Z,7.20
2018-05-26T20:52:35.326Z,7.70
2018-05-26T20:55:02.864Z,9.20
2018-05-26T20:57:30.407Z,6.93
2018-05-26T20:59:58.025Z,7.10
2018-05-26T21:02:25.501Z,8.50
2018-05-26T21:04:53.080Z,7.80
2018-05-26T21:07:20.607Z,7.37
2018-05-26T21:09:48.136Z,7.90
2018-05-26T21:12:15.704Z,8.17
2018-05-26T21:14:43.385Z,7.67
2018-05-26T21:17:10.936Z,7.63
2018-05-26T21:19:38.534Z,8.57
2018-05-26T21:22:06.082Z,9.00
2018-05-26T21:24:33.685Z,9.93
2018-05-26T21:27:01.221Z,9.83
2018-05-26T21:29:28.946Z,9.17
2018-05-26T21:31:56.476Z,9.20
2018-05-26T21:34:24.070Z,9.17
2018-05-26T21:36:51.638Z,9.50
2018-05-26T21:39:19.228Z,8.47
2018-05-26T21:41:47.153Z,10.97
2018-05-26T21:44:14.714Z,10.17
2018-05-26T21:46:42.373Z,10.47
2018-05-26T21:49:10.131Z,9.80
2018-05-26T21:51:37.797Z,10.07
2018-05-26T21:54:05.419Z,8.00
2018-05-26T21:56:33.022Z,9.37
2018-05-26T21:59:00.565Z,8.60
2018-05-26T22:01:28.122Z,9.50
2018-05-26T22:03:55.768Z,10.20
2018-05-26T22:06:23.668Z,8.37
2018-05-26T22:08:51.229Z,8.70
2018-05-26T22:11:18.773Z,10.40
2018-05-26T22:13:46.594Z,9.10
2018-05-26T22:16:14.130Z,8.70
2018-05-26T22:18:41.705Z,9.07
2018-05-26T22:21:09.261Z,9.13
2018-05-26T22:23:36.791Z,10.97
2018-05-26T22:26:04.355Z,10.43
2018-05-26T22:28:31.908Z,9.60
2018-05-26T22:30:59.489Z,9.43
2018-05-26T22:33:27.005Z,9.93
2018-05-26T22:35:54.549Z,9.90
2018-05-26T22:38:22.656Z,9.20
2018-05-26T22:40:50.181Z,10.47
2018-05-26T22:43:17.745Z,9.07
2018-05-26T22:45:45.264Z,10.20
2018-05-26T22:48:12.812Z,9.80
2018-05-26T22:50:40.332Z,9.87
2018-05-26T22:53:07.885Z,9.40
2018-05-26T22:55:35.813Z,10.10
2018-05-26T22:58:03.341Z,10.60
2018-05-26T23:00:30.896Z,10.50
2018-05-26T23:02:58.420Z,11.10
2018-05-26T23:05:25.981Z,10.63
2018-05-26T23:07:53.607Z,9.80
2018-05-26T23:10:21.157Z,9.87
2018-05-26T23:12:48.712Z,8.50
2018-05-26T23:15:16.227Z,7.53
2018-05-26T23:17:43.785Z,10.63
2018-05-26T23:20:11.317Z,8.97
2018-05-26T23:22:38.879Z,10.60
2018-05-26T23:25:06.431Z,10.53
2018-05-26T23:27:33.981Z,9.27
2018-05-26T23:30:01.524Z,9.63
2018-05-26T23:32:29.045Z,9.37
2018-05-26T23:34:56.601Z,9.80
2018-05-26T23:37:24.119Z,9.90
2018-05-26T23:39:51.673Z,10.23
2018-05-26T23:42:19.192Z,8.77
2018-05-26T23:44:46.748Z,10.23
2018-05-26T23:47:14.296Z,9.50
2018-05-26T23:49:41.820Z,10.20
2018-05-26T23:52:09.381Z,11.40
2018-05-26T23:54:36.917Z,12.37
2018-05-26T23:57:04.472Z,10.37
2018-05-26T23:59:32.016Z,10.87
